sensor_id;sensor_type;location;lat;lon;timestamp;temperature;humidity
8709;DHT22;4391;48.678;9.280;2023-08-12T00:02:01;18.70;76.60
8709;DHT22;4391;48.678;9.280;2023-08-12T00:04:27;18.60;81.60
8709;DHT22;4391;48.678;9.280;2023-08-12T00:06:54;18.60;86.70
8709;DHT22;4391;48.678;9.280;2023-08-12T00:09:21;18.50;86.50
8709;DHT22;4391;48.678;9.280;2023-08-12T00:11:48;18.50;90.70
8709;DHT22;4391;48.678;9.280;2023-08-12T00:14:15;18.50;91.20
8709;DHT22;4391;48.678;9.280;2023-08-12T00:16:42;18.50;91.60
8709;DHT22;4391;48.678;9.280;2023-08-12T00:19:10;18.40;92.70
8709;DHT22;4391;48.678;9.280;2023-08-12T00:21:37;18.50;89.70
8709;DHT22;4391;48.678;9.280;2023-08-12T00:24:05;18.60;73.70
8709;DHT22;4391;48.678;9.280;2023-08-12T00:26:33;18.60;73.60
8709;DHT22;4391;48.678;9.280;2023-08-12T00:29:00;18.70;64.40
8709;DHT22;4391;48.678;9.280;2023-08-12T00:31:26;18.70;64.40
8709;DHT22;4391;48.678;9.280;2023-08-12T00:33:53;18.70;61.90
8709;DHT22;4391;48.678;9.280;2023-08-12T00:36:21;18.70;68.40
8709;DHT22;4391;48.678;9.280;2023-08-12T00:38:48;18.60;73.30
8709;DHT22;4391;48.678;9.280;2023-08-12T00:41:15;18.60;82.30
8709;DHT22;4391;48.678;9.280;2023-08-12T00:43:42;18.50;91.00
8709;DHT22;4391;48.678;9.280;2023-08-12T00:46:09;18.40;95.60
8709;DHT22;4391;48.678;9.280;2023-08-12T00:48:36;18.30;99.90
8709;DHT22;4391;48.678;9.280;2023-08-12T00:51:03;18.20;99.90
8709;DHT22;4391;48.678;9.280;2023-08-12T00:53:32;18.20;99.90
8709;DHT22;4391;48.678;9.280;2023-08-12T00:55:58;18.10;99.90
8709;DHT22;4391;48.678;9.280;2023-08-12T00:58:25;18.20;99.90
8709;DHT22;4391;48.678;9.280;2023-08-12T01:00:52;18.20;99.90
8709;DHT22;4391;48.678;9.280;2023-08-12T01:03:19;18.10;99.90
8709;DHT22;4391;48.678;9.280;2023-08-12T01:05:46;18.10;99.90
8709;DHT22;4391;48.678;9.280;2023-08-12T01:08:13;18.00;99.90
8709;DHT22;4391;48.678;9.280;2023-08-12T01:10:47;17.90;99.90
8709;DHT22;4391;48.678;9.280;2023-08-12T01:13:19;17.90;99.90
8709;DHT22;4391;48.678;9.280;2023-08-12T01:15:52;17.90;99.90
8709;DHT22;4391;48.678;9.280;2023-08-12T01:18:20;17.80;99.90
8709;DHT22;4391;48.678;9.280;2023-08-12T01:20:48;17.80;99.90
8709;DHT22;4391;48.678;9.280;2023-08-12T01:23:17;17.70;99.90
8709;DHT22;4391;48.678;9.280;2023-08-12T01:25:45;17.70;99.90
8709;DHT22;4391;48.678;9.280;2023-08-12T01:28:12;17.70;99.90
8709;DHT22;4391;48.678;9.280;2023-08-12T01:30:45;17.60;99.90
8709;DHT22;4391;48.678;9.280;2023-08-12T01:33:17;17.60;99.90
8709;DHT22;4391;48.678;9.280;2023-08-12T01:35:50;17.60;99.90
8709;DHT22;4391;48.678;9.280;2023-08-12T01:38:19;17.60;99.90
8709;DHT22;4391;48.678;9.280;2023-08-12T01:40:49;17.60;99.90
8709;DHT22;4391;48.678;9.280;2023-08-12T01:43:16;17.60;99.90
8709;DHT22;4391;48.678;9.280;2023-08-12T01:45:43;17.50;99.90
8709;DHT22;4391;48.678;9.280;2023-08-12T01:48:11;17.50;99.90
8709;DHT22;4391;48.678;9.280;2023-08-12T01:50:37;17.50;99.90
8709;DHT22;4391;48.678;9.280;2023-08-12T01:53:04;17.50;99.90
8709;DHT22;4391;48.678;9.280;2023-08-12T01:55:32;17.50;99.90
8709;DHT22;4391;48.678;9.280;2023-08-12T01:57:59;17.50;99.90
8709;DHT22;4391;48.678;9.280;2023-08-12T02:00:26;17.40;99.90
8709;DHT22;4391;48.678;9.280;2023-08-12T02:02:53;17.50;99.90
8709;DHT22;4391;48.678;9.280;2023-08-12T02:05:20;17.50;99.90
8709;DHT22;4391;48.678;9.280;2023-08-12T02:07:47;17.50;99.90
8709;DHT22;4391;48.678;9.280;2023-08-12T02:10:14;17.60;99.90
8709;DHT22;4391;48.678;9.280;2023-08-12T02:12:42;17.60;99.90
8709;DHT22;4391;48.678;9.280;2023-08-12T02:15:09;17.70;99.90
8709;DHT22;4391;48.678;9.280;2023-08-12T02:17:37;17.70;99.90
8709;DHT22;4391;48.678;9.280;2023-08-12T02:20:05;17.80;99.90
8709;DHT22;4391;48.678;9.280;2023-08-12T02:22:32;17.90;99.90
8709;DHT22;4391;48.678;9.280;2023-08-12T02:24:58;17.90;99.90
8709;DHT22;4391;48.678;9.280;2023-08-12T02:27:25;17.90;99.90
8709;DHT22;4391;48.678;9.280;2023-08-12T02:29:54;17.90;99.90
8709;DHT22;4391;48.678;9.280;2023-08-12T02:32:20;18.00;99.90
8709;DHT22;4391;48.678;9.280;2023-08-12T02:34:47;18.00;99.90
8709;DHT22;4391;48.678;9.280;2023-08-12T02:37:14;18.10;99.90
8709;DHT22;4391;48.678;9.280;2023-08-12T02:39:41;18.20;99.90
8709;DHT22;4391;48.678;9.280;2023-08-12T02:42:08;18.20;99.90
8709;DHT22;4391;48.678;9.280;2023-08-12T02:44:35;18.20;99.90
8709;DHT22;4391;48.678;9.280;2023-08-12T02:47:03;18.30;99.90
8709;DHT22;4391;48.678;9.280;2023-08-12T02:49:30;18.30;99.90
8709;DHT22;4391;48.678;9.280;2023-08-12T02:51:57;18.30;99.90
8709;DHT22;4391;48.678;9.280;2023-08-12T02:54:24;18.30;99.90
8709;DHT22;4391;48.678;9.280;2023-08-12T02:56:51;18.30;99.90
8709;DHT22;4391;48.678;9.280;2023-08-12T02:59:17;18.20;99.90
8709;DHT22;4391;48.678;9.280;2023-08-12T03:01:44;18.20;99.90
8709;DHT22;4391;48.678;9.280;2023-08-12T03:04:12;18.20;99.90
8709;DHT22;4391;48.678;9.280;2023-08-12T03:06:39;18.20;99.90
8709;DHT22;4391;48.678;9.280;2023-08-12T03:09:06;18.10;99.90
8709;DHT22;4391;48.678;9.280;2023-08-12T03:11:33;18.10;99.90
8709;DHT22;4391;48.678;9.280;2023-08-12T03:14:00;18.10;99.90
8709;DHT22;4391;48.678;9.280;2023-08-12T03:16:26;18.20;99.90
8709;DHT22;4391;48.678;9.280;2023-08-12T03:18:53;18.10;99.90
8709;DHT22;4391;48.678;9.280;2023-08-12T03:21:21;18.20;99.90
8709;DHT22;4391;48.678;9.280;2023-08-12T03:23:48;18.10;99.90
8709;DHT22;4391;48.678;9.280;2023-08-12T03:26:15;18.10;99.90
8709;DHT22;4391;48.678;9.280;2023-08-12T03:28:42;18.10;99.90
8709;DHT22;4391;48.678;9.280;2023-08-12T03:31:09;18.20;99.90
8709;DHT22;4391;48.678;9.280;2023-08-12T03:33:36;18.20;99.90
8709;DHT22;4391;48.678;9.280;2023-08-12T03:36:03;18.20;99.90
8709;DHT22;4391;48.678;9.280;2023-08-12T03:38:31;18.20;99.90
8709;DHT22;4391;48.678;9.280;2023-08-12T03:40:58;18.20;99.90
8709;DHT22;4391;48.678;9.280;2023-08-12T03:43:25;18.20;99.90
8709;DHT22;4391;48.678;9.280;2023-08-12T03:45:55;18.20;99.90
8709;DHT22;4391;48.678;9.280;2023-08-12T03:48:22;18.30;99.90
8709;DHT22;4391;48.678;9.280;2023-08-12T03:50:49;18.30;99.90
8709;DHT22;4391;48.678;9.280;2023-08-12T03:53:16;18.40;99.90
8709;DHT22;4391;48.678;9.280;2023-08-12T03:55:44;18.40;99.90
8709;DHT22;4391;48.678;9.280;2023-08-12T03:58:11;18.40;99.90
8709;DHT22;4391;48.678;9.280;2023-08-12T04:00:40;18.50;99.90
8709;DHT22;4391;48.678;9.280;2023-08-12T04:03:08;18.50;97.40
8709;DHT22;4391;48.678;9.280;2023-08-12T04:05:35;18.50;99.90
8709;DHT22;4391;48.678;9.280;2023-08-12T04:08:02;18.50;99.90
8709;DHT22;4391;48.678;9.280;2023-08-12T04:10:30;18.50;99.90
8709;DHT22;4391;48.678;9.280;2023-08-12T04:12:58;18.40;99.90
8709;DHT22;4391;48.678;9.280;2023-08-12T04:15:25;18.50;99.90
8709;DHT22;4391;48.678;9.280;2023-08-12T04:17:52;18.50;99.90
8709;DHT22;4391;48.678;9.280;2023-08-12T04:20:19;18.50;99.90
8709;DHT22;4391;48.678;9.280;2023-08-12T04:22:46;18.50;99.90
8709;DHT22;4391;48.678;9.280;2023-08-12T04:25:12;18.50;99.90
8709;DHT22;4391;48.678;9.280;2023-08-12T04:27:39;18.40;99.90
8709;DHT22;4391;48.678;9.280;2023-08-12T04:30:09;18.50;99.90
8709;DHT22;4391;48.678;9.280;2023-08-12T04:32:36;18.50;99.90
8709;DHT22;4391;48.678;9.280;2023-08-12T04:35:03;18.50;99.90
8709;DHT22;4391;48.678;9.280;2023-08-12T04:37:30;18.60;99.90
8709;DHT22;4391;48.678;9.280;2023-08-12T04:39:58;18.60;99.90
8709;DHT22;4391;48.678;9.280;2023-08-12T04:42:25;18.60;99.90
8709;DHT22;4391;48.678;9.280;2023-08-12T04:44:52;18.70;99.90
8709;DHT22;4391;48.678;9.280;2023-08-12T04:47:20;18.70;99.90
8709;DHT22;4391;48.678;9.280;2023-08-12T04:49:47;18.70;99.90
8709;DHT22;4391;48.678;9.280;2023-08-12T04:52:14;18.70;99.90
8709;DHT22;4391;48.678;9.280;2023-08-12T04:54:40;18.70;99.90
8709;DHT22;4391;48.678;9.280;2023-08-12T04:57:07;18.70;99.90
8709;DHT22;4391;48.678;9.280;2023-08-12T04:59:34;18.80;98.40
8709;DHT22;4391;48.678;9.280;2023-08-12T05:02:01;18.80;99.70
8709;DHT22;4391;48.678;9.280;2023-08-12T05:04:29;18.80;99.90
8709;DHT22;4391;48.678;9.280;2023-08-12T05:06:56;18.80;98.70
8709;DHT22;4391;48.678;9.280;2023-08-12T05:09:23;18.80;98.00
8709;DHT22;4391;48.678;9.280;2023-08-12T05:11:50;18.90;97.90
8709;DHT22;4391;48.678;9.280;2023-08-12T05:14:17;18.90;95.00
8709;DHT22;4391;48.678;9.280;2023-08-12T05:16:46;19.00;89.80
8709;DHT22;4391;48.678;9.280;2023-08-12T05:19:13;19.00;90.40
8709;DHT22;4391;48.678;9.280;2023-08-12T05:21:41;19.10;90.00
8709;DHT22;4391;48.678;9.280;2023-08-12T05:24:09;19.10;90.30
8709;DHT22;4391;48.678;9.280;2023-08-12T05:26:36;19.20;89.50
8709;DHT22;4391;48.678;9.280;2023-08-12T05:29:04;19.30;67.60
8709;DHT22;4391;48.678;9.280;2023-08-12T05:31:30;19.40;69.30
8709;DHT22;4391;48.678;9.280;2023-08-12T05:33:57;19.50;69.10
8709;DHT22;4391;48.678;9.280;2023-08-12T05:36:24;19.60;56.00
8709;DHT22;4391;48.678;9.280;2023-08-12T05:38:52;19.70;53.90
8709;DHT22;4391;48.678;9.280;2023-08-12T05:41:20;19.80;28.90
8709;DHT22;4391;48.678;9.280;2023-08-12T05:43:47;19.80;21.00
8709;DHT22;4391;48.678;9.280;2023-08-12T05:46:14;19.80;23.90
8709;DHT22;4391;48.678;9.280;2023-08-12T05:48:41;19.90;33.00
8709;DHT22;4391;48.678;9.280;2023-08-12T05:51:08;19.90;36.40
8709;DHT22;4391;48.678;9.280;2023-08-12T05:53:36;20.10;36.30
8709;DHT22;4391;48.678;9.280;2023-08-12T05:56:04;20.20;13.80
8709;DHT22;4391;48.678;9.280;2023-08-12T05:58:31;20.40;11.10
8709;DHT22;4391;48.678;9.280;2023-08-12T06:00:58;20.50;1.00
8709;DHT22;4391;48.678;9.280;2023-08-12T06:03:25;20.60;1.00
8709;DHT22;4391;48.678;9.280;2023-08-12T06:05:52;20.70;1.00
8709;DHT22;4391;48.678;9.280;2023-08-12T06:08:19;20.80;1.00
8709;DHT22;4391;48.678;9.280;2023-08-12T06:10:46;20.80;1.00
8709;DHT22;4391;48.678;9.280;2023-08-12T06:13:14;20.90;1.00
8709;DHT22;4391;48.678;9.280;2023-08-12T06:15:44;21.10;1.00
8709;DHT22;4391;48.678;9.280;2023-08-12T06:18:11;21.20;1.00
8709;DHT22;4391;48.678;9.280;2023-08-12T06:20:40;21.30;1.00
8709;DHT22;4391;48.678;9.280;2023-08-12T06:23:07;21.40;1.00
8709;DHT22;4391;48.678;9.280;2023-08-12T06:25:34;21.30;1.00
8709;DHT22;4391;48.678;9.280;2023-08-12T06:28:02;21.40;1.00
8709;DHT22;4391;48.678;9.280;2023-08-12T06:30:34;21.40;1.00
8709;DHT22;4391;48.678;9.280;2023-08-12T06:33:04;21.50;1.00
8709;DHT22;4391;48.678;9.280;2023-08-12T06:35:31;21.50;1.00
8709;DHT22;4391;48.678;9.280;2023-08-12T06:37:58;21.60;1.00
8709;DHT22;4391;48.678;9.280;2023-08-12T06:40:25;21.60;1.00
8709;DHT22;4391;48.678;9.280;2023-08-12T06:42:52;21.60;1.00
8709;DHT22;4391;48.678;9.280;2023-08-12T06:45:19;21.60;1.00
8709;DHT22;4391;48.678;9.280;2023-08-12T06:47:47;21.70;1.00
8709;DHT22;4391;48.678;9.280;2023-08-12T06:50:14;21.70;1.00
8709;DHT22;4391;48.678;9.280;2023-08-12T06:52:41;21.90;1.00
8709;DHT22;4391;48.678;9.280;2023-08-12T06:55:08;22.10;1.00
8709;DHT22;4391;48.678;9.280;2023-08-12T06:57:35;22.20;1.00
8709;DHT22;4391;48.678;9.280;2023-08-12T07:00:02;22.30;99.90
8709;DHT22;4391;48.678;9.280;2023-08-12T07:02:29;22.60;99.90
8709;DHT22;4391;48.678;9.280;2023-08-12T07:04:58;22.80;1.00
8709;DHT22;4391;48.678;9.280;2023-08-12T07:07:25;23.00;1.00
8709;DHT22;4391;48.678;9.280;2023-08-12T07:09:52;23.20;80.10
8709;DHT22;4391;48.678;9.280;2023-08-12T07:12:19;23.30;99.90
8709;DHT22;4391;48.678;9.280;2023-08-12T07:14:45;23.50;99.90
8709;DHT22;4391;48.678;9.280;2023-08-12T07:17:12;23.70;1.00
8709;DHT22;4391;48.678;9.280;2023-08-12T07:19:39;23.80;1.00
8709;DHT22;4391;48.678;9.280;2023-08-12T07:22:07;23.70;1.00
8709;DHT22;4391;48.678;9.280;2023-08-12T07:24:35;23.90;99.90
8709;DHT22;4391;48.678;9.280;2023-08-12T07:27:01;24.10;99.90
8709;DHT22;4391;48.678;9.280;2023-08-12T07:29:28;24.20;99.90
8709;DHT22;4391;48.678;9.280;2023-08-12T07:31:56;24.30;1.00
8709;DHT22;4391;48.678;9.280;2023-08-12T07:34:23;24.30;99.90
8709;DHT22;4391;48.678;9.280;2023-08-12T07:36:49;24.30;99.90
8709;DHT22;4391;48.678;9.280;2023-08-12T07:39:18;24.40;99.90
8709;DHT22;4391;48.678;9.280;2023-08-12T07:41:45;24.50;99.90
8709;DHT22;4391;48.678;9.280;2023-08-12T07:44:12;24.60;28.00
8709;DHT22;4391;48.678;9.280;2023-08-12T07:46:38;24.70;62.70
8709;DHT22;4391;48.678;9.280;2023-08-12T07:49:05;24.90;1.00
8709;DHT22;4391;48.678;9.280;2023-08-12T07:51:32;25.10;1.00
8709;DHT22;4391;48.678;9.280;2023-08-12T07:53:59;25.50;1.00
8709;DHT22;4391;48.678;9.280;2023-08-12T07:56:27;25.80;1.00
8709;DHT22;4391;48.678;9.280;2023-08-12T07:58:54;26.00;1.00
8709;DHT22;4391;48.678;9.280;2023-08-12T08:01:21;26.40;1.00
8709;DHT22;4391;48.678;9.280;2023-08-12T08:03:48;26.70;1.00
8709;DHT22;4391;48.678;9.280;2023-08-12T08:06:14;26.90;99.90
8709;DHT22;4391;48.678;9.280;2023-08-12T08:08:41;26.90;99.90
8709;DHT22;4391;48.678;9.280;2023-08-12T08:11:08;27.00;99.90
8709;DHT22;4391;48.678;9.280;2023-08-12T08:13:36;27.30;99.90
8709;DHT22;4391;48.678;9.280;2023-08-12T08:16:03;27.60;99.90
8709;DHT22;4391;48.678;9.280;2023-08-12T08:18:31;28.00;99.90
8709;DHT22;4391;48.678;9.280;2023-08-12T08:20:58;28.40;99.90
8709;DHT22;4391;48.678;9.280;2023-08-12T08:23:25;28.70;99.90
8709;DHT22;4391;48.678;9.280;2023-08-12T08:25:51;28.80;99.90
8709;DHT22;4391;48.678;9.280;2023-08-12T08:28:18;28.70;99.90
8709;DHT22;4391;48.678;9.280;2023-08-12T08:30:47;28.60;99.90
8709;DHT22;4391;48.678;9.280;2023-08-12T08:33:13;28.30;99.90
8709;DHT22;4391;48.678;9.280;2023-08-12T08:35:40;28.20;99.90
8709;DHT22;4391;48.678;9.280;2023-08-12T08:38:07;28.00;99.90
8709;DHT22;4391;48.678;9.280;2023-08-12T08:40:34;28.00;99.90
8709;DHT22;4391;48.678;9.280;2023-08-12T08:43:03;28.40;99.90
8709;DHT22;4391;48.678;9.280;2023-08-12T08:45:32;28.60;99.90
8709;DHT22;4391;48.678;9.280;2023-08-12T08:48:01;29.00;99.90
8709;DHT22;4391;48.678;9.280;2023-08-12T08:50:28;29.40;99.90
8709;DHT22;4391;48.678;9.280;2023-08-12T08:52:56;30.00;99.90
8709;DHT22;4391;48.678;9.280;2023-08-12T08:55:24;30.50;99.90
8709;DHT22;4391;48.678;9.280;2023-08-12T08:57:51;31.00;99.90
8709;DHT22;4391;48.678;9.280;2023-08-12T09:00:19;31.00;99.90
8709;DHT22;4391;48.678;9.280;2023-08-12T09:02:46;31.00;99.90
8709;DHT22;4391;48.678;9.280;2023-08-12T09:05:15;31.20;99.90
8709;DHT22;4391;48.678;9.280;2023-08-12T09:07:46;31.20;99.90
8709;DHT22;4391;48.678;9.280;2023-08-12T09:10:14;31.60;99.90
8709;DHT22;4391;48.678;9.280;2023-08-12T09:12:44;31.90;99.90
8709;DHT22;4391;48.678;9.280;2023-08-12T09:15:12;31.70;99.90
8709;DHT22;4391;48.678;9.280;2023-08-12T09:17:39;31.90;99.90
8709;DHT22;4391;48.678;9.280;2023-08-12T09:20:06;32.00;99.90
8709;DHT22;4391;48.678;9.280;2023-08-12T09:22:38;32.40;99.90
8709;DHT22;4391;48.678;9.280;2023-08-12T09:25:07;32.80;99.90
8709;DHT22;4391;48.678;9.280;2023-08-12T09:27:36;33.10;99.90
8709;DHT22;4391;48.678;9.280;2023-08-12T09:30:04;33.30;99.90
8709;DHT22;4391;48.678;9.280;2023-08-12T09:32:31;33.20;99.90
8709;DHT22;4391;48.678;9.280;2023-08-12T09:35:00;33.10;99.90
8709;DHT22;4391;48.678;9.280;2023-08-12T09:37:28;32.80;99.90
8709;DHT22;4391;48.678;9.280;2023-08-12T09:39:56;32.70;99.90
8709;DHT22;4391;48.678;9.280;2023-08-12T09:42:24;32.60;99.90
8709;DHT22;4391;48.678;9.280;2023-08-12T09:44:51;32.60;99.90
8709;DHT22;4391;48.678;9.280;2023-08-12T09:47:18;32.60;99.90
8709;DHT22;4391;48.678;9.280;2023-08-12T09:49:45;32.90;99.90
8709;DHT22;4391;48.678;9.280;2023-08-12T09:52:12;33.00;99.90
8709;DHT22;4391;48.678;9.280;2023-08-12T09:54:39;33.00;99.90
8709;DHT22;4391;48.678;9.280;2023-08-12T09:57:10;33.20;99.90
8709;DHT22;4391;48.678;9.280;2023-08-12T09:59:41;33.30;99.90
8709;DHT22;4391;48.678;9.280;2023-08-12T10:02:14;33.10;99.90
8709;DHT22;4391;48.678;9.280;2023-08-12T10:04:45;33.90;99.90
8709;DHT22;4391;48.678;9.280;2023-08-12T10:07:12;34.50;99.90
8709;DHT22;4391;48.678;9.280;2023-08-12T10:09:43;34.60;99.90
8709;DHT22;4391;48.678;9.280;2023-08-12T10:12:13;35.00;99.90
8709;DHT22;4391;48.678;9.280;2023-08-12T10:14:40;34.30;99.90
8709;DHT22;4391;48.678;9.280;2023-08-12T10:17:08;33.50;99.90
8709;DHT22;4391;48.678;9.280;2023-08-12T10:19:37;32.40;99.90
8709;DHT22;4391;48.678;9.280;2023-08-12T10:22:05;32.00;99.90
8709;DHT22;4391;48.678;9.280;2023-08-12T10:24:34;32.00;99.90
8709;DHT22;4391;48.678;9.280;2023-08-12T10:27:01;31.90;99.90
8709;DHT22;4391;48.678;9.280;2023-08-12T10:29:29;31.80;99.90
8709;DHT22;4391;48.678;9.280;2023-08-12T10:31:57;31.50;99.90
8709;DHT22;4391;48.678;9.280;2023-08-12T10:34:24;31.30;99.90
8709;DHT22;4391;48.678;9.280;2023-08-12T10:36:54;31.10;99.90
8709;DHT22;4391;48.678;9.280;2023-08-12T10:39:24;31.20;99.90
8709;DHT22;4391;48.678;9.280;2023-08-12T10:41:55;31.50;99.90
8709;DHT22;4391;48.678;9.280;2023-08-12T10:44:24;31.70;99.90
8709;DHT22;4391;48.678;9.280;2023-08-12T10:46:54;31.80;99.90
8709;DHT22;4391;48.678;9.280;2023-08-12T10:49:21;31.90;99.90
8709;DHT22;4391;48.678;9.280;2023-08-12T10:51:50;31.80;99.90
8709;DHT22;4391;48.678;9.280;2023-08-12T10:54:20;31.90;99.90
8709;DHT22;4391;48.678;9.280;2023-08-12T10:59:54;32.00;99.90
8709;DHT22;4391;48.678;9.280;2023-08-12T11:02:26;31.80;99.90
8709;DHT22;4391;48.678;9.280;2023-08-12T11:04:55;32.20;99.90
8709;DHT22;4391;48.678;9.280;2023-08-12T11:07:28;33.50;99.90
8709;DHT22;4391;48.678;9.280;2023-08-12T11:09:59;34.10;99.90
8709;DHT22;4391;48.678;9.280;2023-08-12T11:12:30;34.30;99.90
8709;DHT22;4391;48.678;9.280;2023-08-12T11:14:58;34.10;99.90
8709;DHT22;4391;48.678;9.280;2023-08-12T11:17:32;34.00;99.90
8709;DHT22;4391;48.678;9.280;2023-08-12T11:20:01;34.20;99.90
8709;DHT22;4391;48.678;9.280;2023-08-12T11:22:30;34.60;99.90
8709;DHT22;4391;48.678;9.280;2023-08-12T11:24:57;35.30;99.90
8709;DHT22;4391;48.678;9.280;2023-08-12T11:27:24;35.30;99.90
8709;DHT22;4391;48.678;9.280;2023-08-12T11:29:51;34.20;99.90
8709;DHT22;4391;48.678;9.280;2023-08-12T11:32:18;33.80;99.90
8709;DHT22;4391;48.678;9.280;2023-08-12T11:34:47;34.80;99.90
8709;DHT22;4391;48.678;9.280;2023-08-12T11:37:14;35.70;99.90
8709;DHT22;4391;48.678;9.280;2023-08-12T11:39:41;36.30;99.90
8709;DHT22;4391;48.678;9.280;2023-08-12T11:42:08;37.10;99.90
8709;DHT22;4391;48.678;9.280;2023-08-12T11:44:35;38.40;99.90
8709;DHT22;4391;48.678;9.280;2023-08-12T11:47:02;39.40;99.90
8709;DHT22;4391;48.678;9.280;2023-08-12T11:49:28;40.30;99.90
8709;DHT22;4391;48.678;9.280;2023-08-12T11:51:57;40.90;99.90
8709;DHT22;4391;48.678;9.280;2023-08-12T11:54:24;40.00;99.90
8709;DHT22;4391;48.678;9.280;2023-08-12T11:56:52;38.40;99.90
8709;DHT22;4391;48.678;9.280;2023-08-12T11:59:21;36.60;99.90
8709;DHT22;4391;48.678;9.280;2023-08-12T12:01:49;35.20;99.90
8709;DHT22;4391;48.678;9.280;2023-08-12T12:04:16;35.70;99.90
8709;DHT22;4391;48.678;9.280;2023-08-12T12:06:46;37.00;99.90
8709;DHT22;4391;48.678;9.280;2023-08-12T12:09:18;38.80;99.90
8709;DHT22;4391;48.678;9.280;2023-08-12T12:11:45;39.60;99.90
8709;DHT22;4391;48.678;9.280;2023-08-12T12:14:12;38.90;99.90
8709;DHT22;4391;48.678;9.280;2023-08-12T12:16:42;37.30;99.90
8709;DHT22;4391;48.678;9.280;2023-08-12T12:19:12;36.00;99.90
8709;DHT22;4391;48.678;9.280;2023-08-12T12:21:40;34.90;99.90
8709;DHT22;4391;48.678;9.280;2023-08-12T12:24:19;33.60;99.90
8709;DHT22;4391;48.678;9.280;2023-08-12T12:26:46;32.60;99.90
8709;DHT22;4391;48.678;9.280;2023-08-12T12:29:16;31.90;99.90
8709;DHT22;4391;48.678;9.280;2023-08-12T12:31:43;31.40;99.90
8709;DHT22;4391;48.678;9.280;2023-08-12T12:34:10;31.30;99.90
8709;DHT22;4391;48.678;9.280;2023-08-12T12:36:40;31.20;99.90
8709;DHT22;4391;48.678;9.280;2023-08-12T12:39:07;30.90;99.90
8709;DHT22;4391;48.678;9.280;2023-08-12T12:41:35;30.50;99.90
8709;DHT22;4391;48.678;9.280;2023-08-12T12:44:03;29.90;99.90
8709;DHT22;4391;48.678;9.280;2023-08-12T12:46:30;29.10;99.90
8709;DHT22;4391;48.678;9.280;2023-08-12T12:48:57;28.50;99.90
8709;DHT22;4391;48.678;9.280;2023-08-12T12:51:24;27.70;1.00
8709;DHT22;4391;48.678;9.280;2023-08-12T12:53:51;26.40;1.00
8709;DHT22;4391;48.678;9.280;2023-08-12T12:56:18;25.30;1.00
8709;DHT22;4391;48.678;9.280;2023-08-12T12:58:46;24.10;66.10
8709;DHT22;4391;48.678;9.280;2023-08-12T13:01:13;23.40;99.90
8709;DHT22;4391;48.678;9.280;2023-08-12T13:03:40;23.10;99.90
8709;DHT22;4391;48.678;9.280;2023-08-12T13:06:07;22.80;99.90
8709;DHT22;4391;48.678;9.280;2023-08-12T13:08:34;22.50;99.90
8709;DHT22;4391;48.678;9.280;2023-08-12T13:11:01;22.30;99.90
8709;DHT22;4391;48.678;9.280;2023-08-12T13:13:28;22.20;99.90
8709;DHT22;4391;48.678;9.280;2023-08-12T13:15:56;22.20;99.90
8709;DHT22;4391;48.678;9.280;2023-08-12T13:18:23;22.00;99.90
8709;DHT22;4391;48.678;9.280;2023-08-12T13:20:50;21.80;99.90
8709;DHT22;4391;48.678;9.280;2023-08-12T13:23:17;21.70;99.90
8709;DHT22;4391;48.678;9.280;2023-08-12T13:25:44;21.60;99.90
8709;DHT22;4391;48.678;9.280;2023-08-12T13:28:11;21.50;99.90
8709;DHT22;4391;48.678;9.280;2023-08-12T13:30:38;21.40;99.90
8709;DHT22;4391;48.678;9.280;2023-08-12T13:33:07;21.40;99.90
8709;DHT22;4391;48.678;9.280;2023-08-12T13:35:34;21.40;99.90
8709;DHT22;4391;48.678;9.280;2023-08-12T13:38:00;21.50;99.90
8709;DHT22;4391;48.678;9.280;2023-08-12T13:40:27;21.50;99.90
8709;DHT22;4391;48.678;9.280;2023-08-12T13:42:54;21.60;99.90
8709;DHT22;4391;48.678;9.280;2023-08-12T13:45:21;21.70;99.90
8709;DHT22;4391;48.678;9.280;2023-08-12T13:47:50;21.80;99.90
8709;DHT22;4391;48.678;9.280;2023-08-12T13:50:18;21.90;99.90
8709;DHT22;4391;48.678;9.280;2023-08-12T13:52:46;22.20;99.90
8709;DHT22;4391;48.678;9.280;2023-08-12T13:55:14;22.70;99.90
8709;DHT22;4391;48.678;9.280;2023-08-12T13:57:41;23.50;99.90
8709;DHT22;4391;48.678;9.280;2023-08-12T14:00:08;24.50;1.00
8709;DHT22;4391;48.678;9.280;2023-08-12T14:02:38;25.50;1.00
8709;DHT22;4391;48.678;9.280;2023-08-12T14:05:06;26.50;99.90
8709;DHT22;4391;48.678;9.280;2023-08-12T14:07:35;27.00;1.00
8709;DHT22;4391;48.678;9.280;2023-08-12T14:10:03;28.10;99.90
8709;DHT22;4391;48.678;9.280;2023-08-12T14:12:31;28.30;2.80
8709;DHT22;4391;48.678;9.280;2023-08-12T14:14:58;28.60;6.20
8709;DHT22;4391;48.678;9.280;2023-08-12T14:17:25;28.80;1.00
8709;DHT22;4391;48.678;9.280;2023-08-12T14:19:52;29.50;99.90
8709;DHT22;4391;48.678;9.280;2023-08-12T14:22:20;31.20;99.90
8709;DHT22;4391;48.678;9.280;2023-08-12T14:24:50;33.20;99.90
8709;DHT22;4391;48.678;9.280;2023-08-12T14:27:17;34.70;99.90
8709;DHT22;4391;48.678;9.280;2023-08-12T14:29:51;35.90;99.90
8709;DHT22;4391;48.678;9.280;2023-08-12T14:32:22;36.70;99.90
8709;DHT22;4391;48.678;9.280;2023-08-12T14:34:53;37.00;99.90
8709;DHT22;4391;48.678;9.280;2023-08-12T14:37:23;36.70;99.90
8709;DHT22;4391;48.678;9.280;2023-08-12T14:39:52;37.00;99.90
8709;DHT22;4391;48.678;9.280;2023-08-12T14:42:19;37.50;99.90
8709;DHT22;4391;48.678;9.280;2023-08-12T14:44:46;37.60;99.90
8709;DHT22;4391;48.678;9.280;2023-08-12T14:47:13;37.30;99.90
8709;DHT22;4391;48.678;9.280;2023-08-12T14:49:40;38.20;99.90
8709;DHT22;4391;48.678;9.280;2023-08-12T14:52:15;38.10;99.90
8709;DHT22;4391;48.678;9.280;2023-08-12T14:54:42;38.60;99.90
8709;DHT22;4391;48.678;9.280;2023-08-12T14:57:10;38.40;99.90
8709;DHT22;4391;48.678;9.280;2023-08-12T14:59:37;38.80;99.90
8709;DHT22;4391;48.678;9.280;2023-08-12T15:02:04;38.70;99.90
8709;DHT22;4391;48.678;9.280;2023-08-12T15:04:32;38.70;99.90
8709;DHT22;4391;48.678;9.280;2023-08-12T15:06:59;38.50;99.90
8709;DHT22;4391;48.678;9.280;2023-08-12T15:09:25;38.40;99.90
8709;DHT22;4391;48.678;9.280;2023-08-12T15:11:52;37.80;99.90
8709;DHT22;4391;48.678;9.280;2023-08-12T15:14:21;37.30;99.90
8709;DHT22;4391;48.678;9.280;2023-08-12T15:16:48;36.90;99.90
8709;DHT22;4391;48.678;9.280;2023-08-12T15:19:14;36.80;99.90
8709;DHT22;4391;48.678;9.280;2023-08-12T15:21:41;36.40;99.90
8709;DHT22;4391;48.678;9.280;2023-08-12T15:24:08;35.50;99.90
8709;DHT22;4391;48.678;9.280;2023-08-12T15:26:35;34.30;99.90
8709;DHT22;4391;48.678;9.280;2023-08-12T15:29:02;33.10;99.90
8709;DHT22;4391;48.678;9.280;2023-08-12T15:31:30;31.70;99.90
8709;DHT22;4391;48.678;9.280;2023-08-12T15:33:57;30.70;99.90
8709;DHT22;4391;48.678;9.280;2023-08-12T15:36:24;30.00;99.90
8709;DHT22;4391;48.678;9.280;2023-08-12T15:38:51;29.70;99.90
8709;DHT22;4391;48.678;9.280;2023-08-12T15:41:19;29.20;99.90
8709;DHT22;4391;48.678;9.280;2023-08-12T15:43:47;28.50;99.90
8709;DHT22;4391;48.678;9.280;2023-08-12T15:46:14;28.00;1.00
8709;DHT22;4391;48.678;9.280;2023-08-12T15:48:43;27.70;1.00
8709;DHT22;4391;48.678;9.280;2023-08-12T15:51:09;27.50;1.00
8709;DHT22;4391;48.678;9.280;2023-08-12T15:53:37;27.10;99.90
8709;DHT22;4391;48.678;9.280;2023-08-12T15:56:04;26.80;99.90
8709;DHT22;4391;48.678;9.280;2023-08-12T15:58:31;26.50;1.00
8709;DHT22;4391;48.678;9.280;2023-08-12T16:00:57;26.30;1.00
8709;DHT22;4391;48.678;9.280;2023-08-12T16:03:25;26.10;99.90
8709;DHT22;4391;48.678;9.280;2023-08-12T16:05:56;26.00;99.90
8709;DHT22;4391;48.678;9.280;2023-08-12T16:08:23;25.90;74.00
8709;DHT22;4391;48.678;9.280;2023-08-12T16:13:18;25.70;1.00